Time;durP1;ratioP1;P1;durP2;ratioP2;P2;SDS_P1;SDS_P2;PMS_P1;PMS_P2;Temp;Humidity;BMP_temperature;BMP_pressure;BME280_temperature;BME280_humidity;BME280_pressure;Samples;Min_cycle;Max_cycle;Signal;HPM_P1;HPM_P2
2023/04/22 00:00:57;;;;;;;;;;;;;;;5.32;67.79;100487.75;104566;278;96335;-53
2023/04/22 00:03:29;;;;;;;;;;;;;;;5.31;67.81;100490.70;104050;278;121514;-53
2023/04/22 00:06:01;;;;;;;;;;;;;;;5.27;68.24;100484.86;104120;277;104599;-56
2023/04/22 00:08:34;;;;;;;;;;;;;;;5.26;68.40;100483.35;104156;277;113613;-56
2023/04/22 00:11:06;;;;;;;;;;;;;;;5.26;68.56;100481.71;104704;277;96254;-56
2023/04/22 00:13:38;;;;;;;;;;;;;;;5.29;68.52;100481.09;104306;277;97878;-56
2023/04/22 00:16:10;;;;;;;;;;;;;;;5.34;68.50;100478.09;104252;277;121083;-53
2023/04/22 00:18:43;;;;;;;;;;;;;;;5.38;68.46;100475.21;104295;277;103243;-53
2023/04/22 00:21:15;;;;;;;;;;;;;;;5.40;68.45;100471.62;104719;277;114906;-56
2023/04/22 00:23:48;;;;;;;;;;;;;;;5.39;68.64;100471.67;104291;277;96828;-56
2023/04/22 00:26:20;;;;;;;;;;;;;;;5.39;68.62;100473.88;104320;277;97311;-56
2023/04/22 00:28:52;;;;;;;;;;;;;;;5.39;68.71;100474.74;104720;277;121245;-56
2023/04/22 00:31:24;;;;;;;;;;;;;;;5.34;68.91;100470.90;104708;277;104365;-56
2023/04/22 00:33:56;;;;;;;;;;;;;;;5.31;68.84;100473.15;104275;277;114906;-55
2023/04/22 00:36:28;;;;;;;;;;;;;;;5.28;68.74;100472.41;104254;277;94090;-53
2023/04/22 00:39:00;;;;;;;;;;;;;;;5.26;68.83;100468.65;104276;277;97718;-53
2023/04/22 00:41:32;;;;;;;;;;;;;;;5.24;68.87;100466.26;104060;277;119303;-56
2023/04/22 00:44:05;;;;;;;;;;;;;;;5.18;69.06;100468.27;104286;277;104855;-56
2023/04/22 00:46:37;;;;;;;;;;;;;;;5.11;69.12;100466.52;104299;277;113872;-53
2023/04/22 00:49:09;;;;;;;;;;;;;;;5.04;69.09;100468.98;104255;277;93171;-53
2023/04/22 00:51:41;;;;;;;;;;;;;;;5.02;69.02;100466.67;104761;277;97464;-53
2023/04/22 00:54:14;;;;;;;;;;;;;;;4.99;69.13;100465.91;104225;277;120584;-53
2023/04/22 00:56:46;;;;;;;;;;;;;;;4.94;69.29;100468.09;104299;277;105145;-53
2023/04/22 00:59:19;;;;;;;;;;;;;;;4.90;69.37;100466.01;104277;277;114787;-53
2023/04/22 01:01:51;;;;;;;;;;;;;;;4.86;69.49;100465.64;104288;277;93431;-52
2023/04/22 01:04:23;;;;;;;;;;;;;;;4.81;69.62;100466.47;104738;270;97002;-53
2023/04/22 01:06:56;;;;;;;;;;;;;;;4.76;69.75;100464.97;104273;277;120187;-56
2023/04/22 01:09:29;;;;;;;;;;;;;;;4.74;69.82;100464.67;104287;277;104990;-56
2023/04/22 01:12:01;;;;;;;;;;;;;;;4.73;69.91;100465.48;104276;277;113697;-56
2023/04/22 01:14:34;;;;;;;;;;;;;;;4.73;70.03;100461.69;104746;277;96069;-56
2023/04/22 01:17:08;;;;;;;;;;;;;;;4.75;70.07;100464.55;104745;277;97840;-56
2023/04/22 01:19:42;;;;;;;;;;;;;;;4.77;70.19;100462.44;104280;277;120487;-56
2023/04/22 01:22:15;;;;;;;;;;;;;;;4.78;70.25;100465.71;104199;277;106653;-53
2023/04/22 01:24:49;;;;;;;;;;;;;;;4.78;70.37;100463.20;104251;277;114065;-54
2023/04/22 01:27:22;;;;;;;;;;;;;;;4.74;70.53;100464.11;103894;277;375894;-54
2023/04/22 01:29:55;;;;;;;;;;;;;;;4.74;70.66;100462.84;104562;278;97580;-56
2023/04/22 01:32:29;;;;;;;;;;;;;;;4.75;70.66;100462.27;104096;277;119795;-54
2023/04/22 01:35:01;;;;;;;;;;;;;;;4.78;70.67;100464.65;104108;277;105824;-54
2023/04/22 01:37:34;;;;;;;;;;;;;;;4.79;70.75;100464.39;104535;277;115026;-53
2023/04/22 01:40:10;;;;;;;;;;;;;;;4.79;70.75;100466.16;104575;278;92511;-56
2023/04/22 01:42:42;;;;;;;;;;;;;;;4.76;70.83;100466.04;104109;277;97670;-56
2023/04/22 01:45:16;;;;;;;;;;;;;;;4.73;70.75;100464.96;104091;290;120831;-53
2023/04/22 01:47:48;;;;;;;;;;;;;;;4.69;70.72;100468.16;104713;277;104383;-53
2023/04/22 01:50:21;;;;;;;;;;;;;;;4.63;70.99;100461.98;104256;277;114614;-53
2023/04/22 01:52:53;;;;;;;;;;;;;;;4.56;71.15;100458.84;104279;277;93704;-54
2023/04/22 01:55:25;;;;;;;;;;;;;;;4.50;71.09;100460.84;104318;277;97032;-54
2023/04/22 01:57:58;;;;;;;;;;;;;;;4.44;71.30;100460.71;104730;277;119671;-54
2023/04/22 02:00:30;;;;;;;;;;;;;;;4.41;71.39;100457.45;104751;277;105848;-57
2023/04/22 02:03:02;;;;;;;;;;;;;;;4.34;71.60;100457.40;104727;277;113237;-57
2023/04/22 02:05:35;;;;;;;;;;;;;;;4.26;71.69;100457.13;104256;277;95408;-54
2023/04/22 02:08:08;;;;;;;;;;;;;;;4.18;71.84;100453.39;104711;265;97772;-54
2023/04/22 02:10:40;;;;;;;;;;;;;;;4.13;72.12;100456.40;104700;277;120397;-56
2023/04/22 02:13:12;;;;;;;;;;;;;;;4.08;72.08;100456.65;104271;277;106153;-56
2023/04/22 02:15:44;;;;;;;;;;;;;;;4.07;72.25;100454.79;104756;277;114846;-54
2023/04/22 02:18:18;;;;;;;;;;;;;;;4.06;72.31;100448.86;104695;277;95190;-54
2023/04/22 02:20:51;;;;;;;;;;;;;;;4.09;72.42;100449.13;104727;277;96515;-57
2023/04/22 02:23:23;;;;;;;;;;;;;;;4.13;72.42;100442.81;104260;277;118907;-58
2023/04/22 02:25:56;;;;;;;;;;;;;;;4.15;72.58;100446.70;104754;277;105512;-56
2023/04/22 02:28:28;;;;;;;;;;;;;;;4.16;72.65;100444.69;104702;277;114894;-57
2023/04/22 02:31:00;;;;;;;;;;;;;;;4.17;72.72;100443.17;104739;277;96071;-54
2023/04/22 02:33:32;;;;;;;;;;;;;;;4.18;72.66;100447.65;104288;277;97043;-53
2023/04/22 02:36:04;;;;;;;;;;;;;;;4.18;72.73;100445.36;104713;277;120364;-53
2023/04/22 02:38:38;;;;;;;;;;;;;;;4.14;72.92;100440.91;104285;277;105714;-53
2023/04/22 02:41:11;;;;;;;;;;;;;;;4.11;72.92;100442.71;104712;277;114169;-53
2023/04/22 02:43:46;;;;;;;;;;;;;;;4.02;73.01;100441.45;104287;277;92268;-54
2023/04/22 02:46:18;;;;;;;;;;;;;;;3.94;73.11;100442.92;104714;277;96675;-56
2023/04/22 02:48:51;;;;;;;;;;;;;;;3.86;73.20;100442.93;104740;277;119646;-56
2023/04/22 02:51:23;;;;;;;;;;;;;;;3.82;73.21;100444.63;104762;277;104221;-56
2023/04/22 02:53:55;;;;;;;;;;;;;;;3.76;73.17;100439.84;104273;277;114446;-56
2023/04/22 02:56:27;;;;;;;;;;;;;;;3.72;73.26;100441.45;104274;277;95673;-57
2023/04/22 02:59:00;;;;;;;;;;;;;;;3.68;73.42;100440.92;104731;277;97522;-56
2023/04/22 03:01:32;;;;;;;;;;;;;;;3.67;73.43;100442.28;104261;266;120475;-56
2023/04/22 03:04:05;;;;;;;;;;;;;;;3.66;73.59;100444.67;104285;277;105685;-55
2023/04/22 03:06:37;;;;;;;;;;;;;;;3.66;73.77;100444.77;104260;277;113971;-53
2023/04/22 03:09:09;;;;;;;;;;;;;;;3.64;73.89;100444.91;104666;277;95167;-53
2023/04/22 03:11:41;;;;;;;;;;;;;;;3.65;74.04;100448.16;104316;277;97026;-54
2023/04/22 03:14:13;;;;;;;;;;;;;;;3.68;74.09;100448.44;104302;266;119699;-53
2023/04/22 03:16:46;;;;;;;;;;;;;;;3.73;73.94;100452.25;104254;277;105095;-55
2023/04/22 03:19:18;;;;;;;;;;;;;;;3.78;74.08;100448.92;104719;277;114720;-56
2023/04/22 03:21:51;;;;;;;;;;;;;;;3.79;74.19;100453.95;104717;285;93212;-54
2023/04/22 03:24:23;;;;;;;;;;;;;;;3.85;74.17;100457.73;104068;277;97215;-54
2023/04/22 03:26:56;;;;;;;;;;;;;;;3.85;74.27;100453.18;104266;277;119929;-54
2023/04/22 03:29:28;;;;;;;;;;;;;;;3.83;74.25;100457.88;104727;277;106019;-54
2023/04/22 03:32:00;;;;;;;;;;;;;;;3.78;74.33;100457.67;104728;277;114910;-56
2023/04/22 03:34:32;;;;;;;;;;;;;;;3.74;74.34;100456.81;104292;277;93049;-57
2023/04/22 03:37:05;;;;;;;;;;;;;;;3.70;74.32;100457.74;104735;277;96990;-57
2023/04/22 03:39:37;;;;;;;;;;;;;;;3.69;74.37;100462.27;104285;277;119524;-57
2023/04/22 03:42:11;;;;;;;;;;;;;;;3.66;74.51;100463.63;104312;277;104571;-54
2023/04/22 03:44:43;;;;;;;;;;;;;;;3.64;74.58;100464.13;104696;277;113504;-54
2023/04/22 03:47:15;;;;;;;;;;;;;;;3.64;74.58;100465.93;104297;277;95681;-61
2023/04/22 03:49:47;;;;;;;;;;;;;;;3.63;74.72;100465.79;104722;277;96583;-56
2023/04/22 03:52:20;;;;;;;;;;;;;;;3.66;74.90;100469.98;104720;269;119819;-53
2023/04/22 03:54:57;;;;;;;;;;;;;;;3.71;75.00;100466.64;104747;277;104914;-53
2023/04/22 03:57:30;;;;;;;;;;;;;;;3.80;75.04;100467.98;104302;277;114641;-55
2023/04/22 04:00:03;;;;;;;;;;;;;;;3.89;75.18;100472.05;104250;277;93809;-56
2023/04/22 04:02:36;;;;;;;;;;;;;;;3.98;75.21;100470.42;104297;277;97825;-56
2023/04/22 04:05:10;;;;;;;;;;;;;;;4.08;75.28;100470.03;104306;277;120576;-53
2023/04/22 04:07:42;;;;;;;;;;;;;;;4.22;75.31;100474.10;104695;277;105453;-52
2023/04/22 04:10:14;;;;;;;;;;;;;;;4.35;75.29;100471.89;104601;277;114237;-56
2023/04/22 04:12:47;;;;;;;;;;;;;;;4.54;75.32;100473.77;104623;277;94384;-56
2023/04/22 04:15:20;;;;;;;;;;;;;;;4.78;75.32;100478.02;104068;278;96946;-53
2023/04/22 04:17:52;;;;;;;;;;;;;;;5.06;75.21;100478.10;104116;277;120856;-53
2023/04/22 04:20:25;;;;;;;;;;;;;;;5.41;75.22;100481.48;103969;278;106352;-54
2023/04/22 04:22:58;;;;;;;;;;;;;;;5.89;75.07;100474.61;104081;277;113464;-53
2023/04/22 04:25:36;;;;;;;;;;;;;;;6.75;74.78;100474.15;104096;277;92964;-56
2023/04/22 04:28:10;;;;;;;;;;;;;;;7.36;74.12;100474.41;104164;277;96536;-56
2023/04/22 04:30:43;;;;;;;;;;;;;;;8.06;73.72;100474.41;104081;277;120051;-54
2023/04/22 04:33:16;;;;;;;;;;;;;;;8.94;72.53;100473.31;104639;277;104867;-54
2023/04/22 04:35:49;;;;;;;;;;;;;;;10.43;71.54;100469.35;104619;277;113745;-54
2023/04/22 04:38:21;;;;;;;;;;;;;;;12.12;69.64;100466.13;104589;277;93951;-54
2023/04/22 04:40:54;;;;;;;;;;;;;;;13.58;67.75;100471.08;104130;277;98157;-56
2023/04/22 04:43:28;;;;;;;;;;;;;;;14.65;65.74;100465.73;104599;277;119659;-56
2023/04/22 04:46:00;;;;;;;;;;;;;;;15.71;63.67;100466.11;104603;277;105236;-54
2023/04/22 04:48:34;;;;;;;;;;;;;;;16.57;61.55;100464.00;104576;277;113539;-54
2023/04/22 04:51:07;;;;;;;;;;;;;;;17.33;59.67;100466.23;104120;277;93721;-54
2023/04/22 04:53:40;;;;;;;;;;;;;;;18.08;57.77;100466.48;103989;278;99777;-55
2023/04/22 04:56:12;;;;;;;;;;;;;;;19.02;56.12;100459.45;104098;277;120906;-58
2023/04/22 04:58:45;;;;;;;;;;;;;;;19.70;54.07;100461.44;104104;278;105708;-58
2023/04/22 05:01:17;;;;;;;;;;;;;;;20.12;52.60;100464.29;104595;278;115023;-54
2023/04/22 05:03:50;;;;;;;;;;;;;;;20.05;51.34;100461.05;104556;278;94019;-54
2023/04/22 05:06:23;;;;;;;;;;;;;;;19.68;51.17;100463.70;104107;278;95314;-58
2023/04/22 05:08:56;;;;;;;;;;;;;;;19.55;50.67;100462.31;104205;277;121490;-55
2023/04/22 05:11:28;;;;;;;;;;;;;;;19.65;49.21;100465.84;104300;277;105757;-54
2023/04/22 05:14:03;;;;;;;;;;;;;;;19.61;48.56;100464.23;104272;277;114483;-54
2023/04/22 05:16:35;;;;;;;;;;;;;;;19.85;47.66;100464.92;104259;277;95191;-56
2023/04/22 05:19:08;;;;;;;;;;;;;;;19.78;47.18;100464.33;104723;277;97842;-57
2023/04/22 05:21:41;;;;;;;;;;;;;;;19.89;47.01;100462.04;104300;277;120353;-54
2023/04/22 05:24:13;;;;;;;;;;;;;;;20.28;46.70;100461.14;104736;277;105808;-54
2023/04/22 05:26:47;;;;;;;;;;;;;;;20.91;45.88;100457.77;104286;277;114799;-54
2023/04/22 05:29:20;;;;;;;;;;;;;;;21.80;45.23;100459.59;104715;277;94749;-54
2023/04/22 05:31:52;;;;;;;;;;;;;;;22.83;43.92;100456.42;104732;277;97369;-57
2023/04/22 05:34:24;;;;;;;;;;;;;;;23.59;42.60;100455.02;104281;277;119493;-57
2023/04/22 05:36:56;;;;;;;;;;;;;;;24.22;41.64;100453.58;104267;277;105835;-57
2023/04/22 05:39:28;;;;;;;;;;;;;;;24.89;40.83;100452.00;104722;277;115160;-57
2023/04/22 05:42:01;;;;;;;;;;;;;;;25.05;39.86;100451.89;104699;277;94705;-55
2023/04/22 05:44:33;;;;;;;;;;;;;;;25.42;38.94;100454.05;104745;277;97410;-55
2023/04/22 05:47:05;;;;;;;;;;;;;;;25.73;38.13;100450.64;104297;277;120595;-54
2023/04/22 05:49:38;;;;;;;;;;;;;;;25.92;37.72;100450.73;104704;277;106083;-54
2023/04/22 05:52:10;;;;;;;;;;;;;;;26.34;36.69;100449.20;104262;277;114558;-54
2023/04/22 05:54:42;;;;;;;;;;;;;;;26.40;36.22;100447.92;104272;277;94889;-54
2023/04/22 05:57:14;;;;;;;;;;;;;;;27.12;35.58;100446.27;104314;277;96270;-54
2023/04/22 05:59:47;;;;;;;;;;;;;;;27.43;35.04;100443.48;104717;277;121917;-55
2023/04/22 06:02:19;;;;;;;;;;;;;;;27.48;34.66;100441.19;104721;277;103886;-58
2023/04/22 06:04:52;;;;;;;;;;;;;;;28.38;33.80;100440.99;104285;277;114004;-59
2023/04/22 06:07:24;;;;;;;;;;;;;;;28.48;33.18;100438.33;104262;277;95046;-58
2023/04/22 06:09:57;;;;;;;;;;;;;;;28.65;32.62;100445.73;104727;277;97208;-56
2023/04/22 06:12:30;;;;;;;;;;;;;;;28.44;32.46;100441.29;104296;277;120547;-56
2023/04/22 06:15:03;;;;;;;;;;;;;;;28.60;32.34;100442.48;104274;277;105529;-58
2023/04/22 06:17:36;;;;;;;;;;;;;;;28.93;31.49;100437.68;104302;277;115021;-58
2023/04/22 06:20:11;;;;;;;;;;;;;;;28.83;30.82;100434.44;104275;277;93589;-56
2023/04/22 06:22:44;;;;;;;;;;;;;;;29.45;30.28;100433.98;104276;277;97210;-56
2023/04/22 06:25:17;;;;;;;;;;;;;;;29.63;29.95;100430.93;104702;277;120212;-56
2023/04/22 06:27:50;;;;;;;;;;;;;;;30.01;29.93;100433.07;104284;277;105460;-56
2023/04/22 06:30:22;;;;;;;;;;;;;;;30.53;29.61;100435.49;104300;277;113290;-58
2023/04/22 06:32:58;;;;;;;;;;;;;;;30.74;29.20;100438.80;104749;277;94011;-56
2023/04/22 06:35:30;;;;;;;;;;;;;;;30.48;28.93;100432.13;104295;277;98139;-54
2023/04/22 06:38:02;;;;;;;;;;;;;;;30.40;28.64;100433.55;104262;277;118958;-54
2023/04/22 06:40:35;;;;;;;;;;;;;;;30.71;28.28;100429.27;104740;277;103514;-54
2023/04/22 06:43:07;;;;;;;;;;;;;;;31.09;27.71;100429.55;104258;277;113719;-54
2023/04/22 06:45:40;;;;;;;;;;;;;;;31.10;27.19;100431.58;104714;277;94536;-54
2023/04/22 06:48:12;;;;;;;;;;;;;;;30.89;27.31;100429.85;104266;277;96127;-54
2023/04/22 06:50:45;;;;;;;;;;;;;;;30.87;27.01;100428.32;104277;277;120605;-55
2023/04/22 06:53:17;;;;;;;;;;;;;;;30.72;26.79;100429.48;104268;277;106014;-55
2023/04/22 06:55:49;;;;;;;;;;;;;;;29.94;26.83;100427.80;104293;277;114672;-54
2023/04/22 06:58:22;;;;;;;;;;;;;;;29.34;27.33;100428.75;104738;277;94812;-54
2023/04/22 07:00:54;;;;;;;;;;;;;;;28.96;27.12;100428.15;104301;277;96142;-56
2023/04/22 07:03:26;;;;;;;;;;;;;;;28.71;27.49;100428.90;104285;277;120789;-56
2023/04/22 07:05:58;;;;;;;;;;;;;;;28.80;27.18;100427.88;104285;277;105119;-56
2023/04/22 07:08:30;;;;;;;;;;;;;;;29.30;27.40;100428.73;104719;277;113695;-56
2023/04/22 07:11:02;;;;;;;;;;;;;;;30.18;27.00;100429.89;104727;277;95335;-57
2023/04/22 07:13:34;;;;;;;;;;;;;;;31.30;26.00;100425.33;104751;277;98071;-57
2023/04/22 07:16:06;;;;;;;;;;;;;;;31.92;25.66;100420.77;104699;277;121364;-56
2023/04/22 07:18:39;;;;;;;;;;;;;;;32.48;25.25;100421.86;104277;277;105257;-57
2023/04/22 07:21:11;;;;;;;;;;;;;;;32.29;24.36;100422.77;104299;277;114100;-55
2023/04/22 07:23:43;;;;;;;;;;;;;;;32.51;24.25;100421.86;104285;277;94686;-55
2023/04/22 07:26:15;;;;;;;;;;;;;;;32.47;24.23;100423.21;104304;277;97380;-55
2023/04/22 07:28:47;;;;;;;;;;;;;;;32.58;23.94;100424.20;104297;277;120161;-55
2023/04/22 07:31:20;;;;;;;;;;;;;;;32.90;23.96;100419.85;104294;277;105945;-55
2023/04/22 07:33:52;;;;;;;;;;;;;;;33.45;23.66;100419.30;104279;277;113479;-55
2023/04/22 07:36:25;;;;;;;;;;;;;;;33.26;23.29;100418.14;104274;277;93136;-55
2023/04/22 07:38:57;;;;;;;;;;;;;;;33.06;23.29;100418.38;104288;277;98295;-55
2023/04/22 07:41:29;;;;;;;;;;;;;;;33.66;23.19;100414.41;104047;279;120579;-55
2023/04/22 07:44:01;;;;;;;;;;;;;;;34.11;22.50;100411.73;104703;277;104561;-55
2023/04/22 07:46:34;;;;;;;;;;;;;;;34.35;23.05;100412.66;104691;281;114523;-57
2023/04/22 07:49:06;;;;;;;;;;;;;;;34.40;22.95;100414.20;104263;277;94322;-57
2023/04/22 07:51:39;;;;;;;;;;;;;;;34.11;22.41;100411.08;104274;277;98534;-55
2023/04/22 07:54:11;;;;;;;;;;;;;;;33.81;21.97;100404.06;104277;277;120898;-55
2023/04/22 07:56:43;;;;;;;;;;;;;;;33.86;21.92;100406.49;104293;277;105763;-58
2023/04/22 07:59:15;;;;;;;;;;;;;;;33.58;22.12;100412.70;104712;277;114930;-58
2023/04/22 08:01:47;;;;;;;;;;;;;;;33.35;22.16;100409.27;104752;277;95102;-65
2023/04/22 08:04:20;;;;;;;;;;;;;;;33.19;21.92;100409.55;104716;277;98045;-65
2023/04/22 08:06:53;;;;;;;;;;;;;;;33.13;21.57;100410.28;104257;277;120656;-66
2023/04/22 08:09:26;;;;;;;;;;;;;;;32.73;21.20;100415.77;104277;277;106356;-64
2023/04/22 08:12:01;;;;;;;;;;;;;;;32.34;20.95;100414.65;104287;277;113436;-63
2023/04/22 08:14:34;;;;;;;;;;;;;;;32.75;21.52;100416.42;104036;279;93560;-63
2023/04/22 08:17:06;;;;;;;;;;;;;;;32.96;21.55;100415.95;104330;277;98081;-63
2023/04/22 08:19:39;;;;;;;;;;;;;;;33.31;21.55;100409.93;104280;277;119982;-64
2023/04/22 08:22:12;;;;;;;;;;;;;;;33.53;21.70;100412.17;103965;280;105385;-64
2023/04/22 08:24:44;;;;;;;;;;;;;;;33.43;21.51;100409.47;104271;277;114820;-64
2023/04/22 08:27:18;;;;;;;;;;;;;;;33.65;21.19;100409.02;104706;277;95356;-64
2023/04/22 08:29:51;;;;;;;;;;;;;;;33.61;21.04;100403.75;104308;277;97048;-62
2023/04/22 08:32:25;;;;;;;;;;;;;;;33.31;20.96;100406.07;104318;277;121027;-61
2023/04/22 08:34:57;;;;;;;;;;;;;;;32.97;20.91;100406.80;104308;277;105796;-62
2023/04/22 08:37:31;;;;;;;;;;;;;;;32.72;21.35;100408.21;104028;277;113838;-63
2023/04/22 08:40:04;;;;;;;;;;;;;;;33.07;21.18;100403.46;104272;277;94792;-62
2023/04/22 08:42:38;;;;;;;;;;;;;;;32.96;21.18;100401.72;104319;277;96403;-63
2023/04/22 08:45:13;;;;;;;;;;;;;;;33.25;21.44;100402.55;104291;277;119453;-63
2023/04/22 08:47:46;;;;;;;;;;;;;;;33.13;21.14;100403.69;104308;277;104415;-56
2023/04/22 08:50:20;;;;;;;;;;;;;;;32.70;21.07;100404.24;104297;277;113954;-55
2023/04/22 08:52:54;;;;;;;;;;;;;;;32.50;21.05;100403.91;104267;277;94061;-54
2023/04/22 08:55:27;;;;;;;;;;;;;;;32.70;20.79;100396.41;104288;277;97062;-54
2023/04/22 08:58:02;;;;;;;;;;;;;;;33.05;20.99;100393.61;104061;279;119637;-54
2023/04/22 09:00:36;;;;;;;;;;;;;;;32.93;20.72;100396.92;104298;277;104325;-59
2023/04/22 09:03:09;;;;;;;;;;;;;;;32.43;20.70;100399.15;104267;277;114337;-56
2023/04/22 09:05:43;;;;;;;;;;;;;;;32.19;20.46;100396.73;104738;277;94155;-56
2023/04/22 09:08:16;;;;;;;;;;;;;;;32.46;20.36;100390.56;104304;277;97257;-58
2023/04/22 09:10:50;;;;;;;;;;;;;;;32.55;19.83;100393.43;104301;277;119048;-57
2023/04/22 09:13:27;;;;;;;;;;;;;;;32.41;19.92;100388.99;104097;277;105752;-57
2023/04/22 09:16:02;;;;;;;;;;;;;;;32.07;19.64;100390.71;104273;277;113799;-62
2023/04/22 09:18:44;;;;;;;;;;;;;;;31.65;19.73;100387.36;104251;277;95054;-61
2023/04/22 09:21:17;;;;;;;;;;;;;;;30.79;20.05;100397.23;104300;277;96277;-59
2023/04/22 09:23:52;;;;;;;;;;;;;;;30.19;20.57;100390.28;104273;277;120994;-58
2023/04/22 09:26:25;;;;;;;;;;;;;;;29.85;20.88;100385.90;104752;277;106318;-58
2023/04/22 09:28:59;;;;;;;;;;;;;;;29.41;21.70;100381.09;103906;277;526940;-57
2023/04/22 09:31:32;;;;;;;;;;;;;;;28.99;21.71;100384.98;104046;279;94992;-59
2023/04/22 09:34:05;;;;;;;;;;;;;;;28.81;21.50;100383.87;104295;277;96528;-59
2023/04/22 09:36:38;;;;;;;;;;;;;;;28.51;21.73;100378.89;104298;277;119731;-58
2023/04/22 09:39:10;;;;;;;;;;;;;;;27.89;22.60;100381.80;104289;277;105560;-58
2023/04/22 09:41:43;;;;;;;;;;;;;;;27.36;22.50;100383.55;104310;277;114459;-62
2023/04/22 09:44:18;;;;;;;;;;;;;;;26.92;22.83;100377.33;104262;277;93438;-63
2023/04/22 09:46:51;;;;;;;;;;;;;;;27.15;22.87;100372.63;104323;277;97362;-62
2023/04/22 09:49:27;;;;;;;;;;;;;;;27.08;22.81;100369.35;104718;277;119287;-63
2023/04/22 09:51:59;;;;;;;;;;;;;;;26.87;23.00;100365.70;104324;277;105102;-61
2023/04/22 09:54:32;;;;;;;;;;;;;;;26.61;23.26;100369.83;104722;277;113929;-61
2023/04/22 09:57:04;;;;;;;;;;;;;;;25.98;23.67;100371.25;104301;277;92845;-61
2023/04/22 09:59:39;;;;;;;;;;;;;;;25.71;23.86;100361.43;104309;277;97698;-62
2023/04/22 10:02:12;;;;;;;;;;;;;;;25.55;24.06;100363.88;104303;277;120084;-65
2023/04/22 10:04:46;;;;;;;;;;;;;;;25.48;24.19;100362.49;104287;277;105897;-65
2023/04/22 10:07:18;;;;;;;;;;;;;;;25.39;23.96;100360.22;104292;277;113313;-65
2023/04/22 10:09:53;;;;;;;;;;;;;;;25.37;24.90;100357.92;104059;277;96562;-65
2023/04/22 10:12:26;;;;;;;;;;;;;;;25.33;24.47;100355.02;104327;277;95726;-64
2023/04/22 10:14:59;;;;;;;;;;;;;;;25.26;24.50;100358.44;104304;277;120592;-64
2023/04/22 10:17:33;;;;;;;;;;;;;;;25.18;24.41;100350.68;104351;277;104907;-63
2023/04/22 10:20:12;;;;;;;;;;;;;;;24.94;24.08;100352.33;104730;277;115301;-63
2023/04/22 10:22:44;;;;;;;;;;;;;;;24.76;24.25;100349.30;104295;277;94518;-63
2023/04/22 10:25:24;;;;;;;;;;;;;;;24.72;24.34;100350.05;104742;277;96933;-62
2023/04/22 10:28:03;;;;;;;;;;;;;;;24.57;24.43;100348.84;104057;275;123304;-57
2023/04/22 10:30:38;;;;;;;;;;;;;;;24.42;24.61;100345.79;104077;279;105496;-54
2023/04/22 10:33:37;;;;;;;;;;;;;;;24.49;25.09;100344.73;104258;277;113534;-54
2023/04/22 10:36:18;;;;;;;;;;;;;;;24.55;24.78;100341.45;104270;277;95136;-55
2023/04/22 10:39:20;;;;;;;;;;;;;;;24.39;25.25;100340.89;104720;277;96014;-55
2023/04/22 10:42:06;;;;;;;;;;;;;;;24.21;25.17;100345.48;104294;277;121004;-55
2023/04/22 10:44:54;;;;;;;;;;;;;;;24.10;25.46;100342.56;104264;277;105719;-56
2023/04/22 10:47:33;;;;;;;;;;;;;;;24.34;25.95;100333.56;104708;277;113721;-58
2023/04/22 10:50:17;;;;;;;;;;;;;;;24.17;25.66;100338.64;104298;277;94435;-56
2023/04/22 10:52:52;;;;;;;;;;;;;;;23.84;25.08;100334.48;104078;277;97442;-55
2023/04/22 10:55:26;;;;;;;;;;;;;;;23.70;25.08;100327.92;104732;277;121104;-56
2023/04/22 10:57:59;;;;;;;;;;;;;;;23.72;25.00;100327.27;104053;279;104535;-55
2023/04/22 11:00:40;;;;;;;;;;;;;;;23.77;25.13;100324.50;104026;277;114597;-56
2023/04/22 11:03:17;;;;;;;;;;;;;;;23.78;24.97;100324.39;104703;277;94419;-55
2023/04/22 11:05:50;;;;;;;;;;;;;;;23.47;25.38;100324.61;104538;279;96258;-56
2023/04/22 11:08:28;;;;;;;;;;;;;;;23.14;25.44;100325.40;104092;279;120511;-54
2023/04/22 11:11:12;;;;;;;;;;;;;;;22.64;25.59;100323.55;104095;279;105389;-56
2023/04/22 11:13:49;;;;;;;;;;;;;;;22.36;26.13;100323.38;104066;279;114261;-57
2023/04/22 11:16:23;;;;;;;;;;;;;;;22.19;26.87;100323.66;104511;279;94181;-54
2023/04/22 11:18:57;;;;;;;;;;;;;;;22.01;27.32;100324.55;104116;279;97523;-55
2023/04/22 11:21:31;;;;;;;;;;;;;;;21.69;27.82;100322.16;104083;278;120490;-57
2023/04/22 11:24:05;;;;;;;;;;;;;;;21.57;28.47;100320.70;104130;279;105045;-57
2023/04/22 11:26:40;;;;;;;;;;;;;;;21.49;28.23;100319.77;104079;279;114000;-57
2023/04/22 11:29:12;;;;;;;;;;;;;;;21.40;28.56;100318.36;104105;278;94416;-57
2023/04/22 11:31:50;;;;;;;;;;;;;;;21.19;28.80;100313.67;104133;278;95610;-58
2023/04/22 11:34:22;;;;;;;;;;;;;;;21.10;29.52;100312.00;104547;279;121068;-58
2023/04/22 11:36:54;;;;;;;;;;;;;;;20.99;29.77;100310.80;104543;279;105708;-58
2023/04/22 11:39:36;;;;;;;;;;;;;;;20.89;29.76;100309.99;104113;278;113197;-58
2023/04/22 11:42:08;;;;;;;;;;;;;;;20.80;30.18;100310.23;104540;279;92624;-58
2023/04/22 11:44:44;;;;;;;;;;;;;;;20.65;30.34;100308.95;104547;279;95240;-63
2023/04/22 11:47:18;;;;;;;;;;;;;;;20.62;30.67;100308.30;104106;279;118255;-66
2023/04/22 11:49:59;;;;;;;;;;;;;;;20.64;30.77;100309.65;104543;278;106210;-64
2023/04/22 11:52:45;;;;;;;;;;;;;;;20.63;30.59;100308.73;104081;279;114312;-61
2023/04/22 11:55:20;;;;;;;;;;;;;;;20.68;30.58;100306.20;104544;282;94871;-64
2023/04/22 11:57:57;;;;;;;;;;;;;;;20.73;30.65;100310.70;103942;280;95600;-64
2023/04/22 12:00:33;;;;;;;;;;;;;;;20.64;30.67;100309.39;104104;279;120839;-64
2023/04/22 12:03:07;;;;;;;;;;;;;;;20.64;29.95;100308.46;104101;279;105035;-65
2023/04/22 12:05:41;;;;;;;;;;;;;;;20.75;29.87;100301.10;104095;279;113629;-62
2023/04/22 12:08:15;;;;;;;;;;;;;;;21.01;29.49;100299.47;104106;279;93285;-62
2023/04/22 12:10:49;;;;;;;;;;;;;;;21.25;30.01;100298.50;104137;279;95875;-63
2023/04/22 12:13:22;;;;;;;;;;;;;;;21.20;29.72;100290.16;104080;278;120868;-63
2023/04/22 12:15:57;;;;;;;;;;;;;;;21.10;29.64;100295.17;104106;279;104748;-63
2023/04/22 12:18:33;;;;;;;;;;;;;;;21.25;29.39;100293.89;104507;279;114028;-62
2023/04/22 12:21:10;;;;;;;;;;;;;;;21.32;29.66;100289.88;104487;279;95079;-65
2023/04/22 12:23:47;;;;;;;;;;;;;;;21.59;29.82;100285.75;104532;279;96603;-65
2023/04/22 12:26:21;;;;;;;;;;;;;;;21.76;30.01;100286.74;104102;279;121073;-57
2023/04/22 12:28:53;;;;;;;;;;;;;;;21.67;29.60;100285.48;104521;278;105408;-57
2023/04/22 12:31:26;;;;;;;;;;;;;;;21.58;29.64;100283.77;104081;278;113681;-57
2023/04/22 12:33:59;;;;;;;;;;;;;;;21.41;29.69;100280.66;103917;279;95168;-58
2023/04/22 12:36:32;;;;;;;;;;;;;;;21.28;30.09;100282.48;104133;266;96106;-57
2023/04/22 12:39:05;;;;;;;;;;;;;;;21.14;29.97;100281.15;104091;279;120239;-57
2023/04/22 12:41:37;;;;;;;;;;;;;;;21.10;30.16;100281.34;104107;279;105089;-57
2023/04/22 12:44:09;;;;;;;;;;;;;;;21.02;30.33;100281.02;104072;279;114123;-58
2023/04/22 12:46:42;;;;;;;;;;;;;;;20.87;30.35;100276.31;104081;278;93741;-60
2023/04/22 12:49:14;;;;;;;;;;;;;;;20.78;30.51;100276.87;104534;278;95472;-61
2023/04/22 12:51:47;;;;;;;;;;;;;;;20.66;31.14;100275.42;104520;279;121489;-60
2023/04/22 12:54:19;;;;;;;;;;;;;;;20.54;31.66;100270.13;104095;279;105438;-60
2023/04/22 12:56:52;;;;;;;;;;;;;;;20.43;31.77;100267.71;104101;282;113397;-60
2023/04/22 12:59:25;;;;;;;;;;;;;;;20.31;31.86;100266.96;103951;328;93547;-60
2023/04/22 13:01:58;;;;;;;;;;;;;;;20.21;31.83;100262.02;104110;279;96056;-60
2023/04/22 13:04:30;;;;;;;;;;;;;;;20.09;32.24;100257.38;103918;280;120615;-60